sensor_id;sensor_type;location;lat;lon;timestamp;P1;durP1;ratioP1;P2;durP2;ratioP2
24617;SDS011;12762;51.730;5.356;2024-02-21T00:00:58;19.03;;;9.10;;
24617;SDS011;12762;51.730;5.356;2024-02-21T00:03:25;19.87;;;9.27;;
24617;SDS011;12762;51.730;5.356;2024-02-21T00:05:52;21.87;;;8.43;;
24617;SDS011;12762;51.730;5.356;2024-02-21T00:08:19;22.37;;;8.17;;
24617;SDS011;12762;51.730;5.356;2024-02-21T00:10:47;16.00;;;7.67;;
24617;SDS011;12762;51.730;5.356;2024-02-21T00:13:15;16.43;;;7.10;;
24617;SDS011;12762;51.730;5.356;2024-02-21T00:15:42;19.43;;;7.33;;
24617;SDS011;12762;51.730;5.356;2024-02-21T00:18:09;19.17;;;7.57;;
24617;SDS011;12762;51.730;5.356;2024-02-21T00:20:37;17.63;;;6.90;;
24617;SDS011;12762;51.730;5.356;2024-02-21T00:23:04;18.77;;;7.17;;
24617;SDS011;12762;51.730;5.356;2024-02-21T00:25:31;18.67;;;7.73;;
24617;SDS011;12762;51.730;5.356;2024-02-21T00:27:57;17.50;;;7.13;;
24617;SDS011;12762;51.730;5.356;2024-02-21T00:30:24;13.50;;;7.47;;
24617;SDS011;12762;51.730;5.356;2024-02-21T00:32:51;20.47;;;7.87;;
24617;SDS011;12762;51.730;5.356;2024-02-21T00:35:18;16.00;;;7.20;;
24617;SDS011;12762;51.730;5.356;2024-02-21T00:37:45;18.33;;;7.63;;
24617;SDS011;12762;51.730;5.356;2024-02-21T00:40:12;15.77;;;7.83;;
24617;SDS011;12762;51.730;5.356;2024-02-21T00:42:39;24.37;;;8.93;;
24617;SDS011;12762;51.730;5.356;2024-02-21T00:45:06;19.97;;;7.73;;
24617;SDS011;12762;51.730;5.356;2024-02-21T00:47:34;16.47;;;8.10;;
24617;SDS011;12762;51.730;5.356;2024-02-21T00:50:01;20.93;;;8.07;;
24617;SDS011;12762;51.730;5.356;2024-02-21T00:52:28;21.63;;;8.20;;
24617;SDS011;12762;51.730;5.356;2024-02-21T00:54:54;19.13;;;7.93;;
24617;SDS011;12762;51.730;5.356;2024-02-21T00:57:21;19.33;;;8.17;;
24617;SDS011;12762;51.730;5.356;2024-02-21T00:59:49;17.17;;;8.10;;
24617;SDS011;12762;51.730;5.356;2024-02-21T01:02:16;23.33;;;8.20;;
24617;SDS011;12762;51.730;5.356;2024-02-21T01:04:43;16.30;;;7.73;;
24617;SDS011;12762;51.730;5.356;2024-02-21T01:07:09;18.70;;;7.57;;
24617;SDS011;12762;51.730;5.356;2024-02-21T01:09:38;15.60;;;7.53;;
24617;SDS011;12762;51.730;5.356;2024-02-21T01:12:05;20.63;;;8.00;;
24617;SDS011;12762;51.730;5.356;2024-02-21T01:14:32;18.53;;;7.43;;
24617;SDS011;12762;51.730;5.356;2024-02-21T01:16:59;17.47;;;7.83;;
24617;SDS011;12762;51.730;5.356;2024-02-21T01:19:26;16.47;;;7.20;;
24617;SDS011;12762;51.730;5.356;2024-02-21T01:21:53;18.53;;;7.40;;
24617;SDS011;12762;51.730;5.356;2024-02-21T01:24:25;19.97;;;7.90;;
24617;SDS011;12762;51.730;5.356;2024-02-21T01:26:52;18.00;;;8.53;;
24617;SDS011;12762;51.730;5.356;2024-02-21T01:29:19;17.00;;;7.60;;
24617;SDS011;12762;51.730;5.356;2024-02-21T01:31:46;20.03;;;7.53;;
24617;SDS011;12762;51.730;5.356;2024-02-21T01:34:13;19.97;;;8.07;;
24617;SDS011;12762;51.730;5.356;2024-02-21T01:36:40;21.57;;;8.60;;
24617;SDS011;12762;51.730;5.356;2024-02-21T01:39:08;18.73;;;7.93;;
24617;SDS011;12762;51.730;5.356;2024-02-21T01:41:34;17.63;;;7.83;;
24617;SDS011;12762;51.730;5.356;2024-02-21T01:44:01;18.77;;;8.13;;
24617;SDS011;12762;51.730;5.356;2024-02-21T01:46:28;20.93;;;8.43;;
24617;SDS011;12762;51.730;5.356;2024-02-21T01:48:57;23.67;;;7.77;;
24617;SDS011;12762;51.730;5.356;2024-02-21T01:51:24;16.57;;;7.43;;
24617;SDS011;12762;51.730;5.356;2024-02-21T01:53:51;19.80;;;7.97;;
24617;SDS011;12762;51.730;5.356;2024-02-21T01:56:21;22.83;;;7.67;;
24617;SDS011;12762;51.730;5.356;2024-02-21T01:58:48;24.47;;;8.27;;
24617;SDS011;12762;51.730;5.356;2024-02-21T02:01:16;17.27;;;7.40;;
24617;SDS011;12762;51.730;5.356;2024-02-21T02:03:47;20.10;;;7.27;;
24617;SDS011;12762;51.730;5.356;2024-02-21T02:06:15;24.83;;;7.57;;
24617;SDS011;12762;51.730;5.356;2024-02-21T02:08:42;19.10;;;7.23;;
24617;SDS011;12762;51.730;5.356;2024-02-21T02:11:09;18.23;;;7.07;;
24617;SDS011;12762;51.730;5.356;2024-02-21T02:13:37;17.23;;;7.20;;
24617;SDS011;12762;51.730;5.356;2024-02-21T02:16:04;14.80;;;7.37;;
24617;SDS011;12762;51.730;5.356;2024-02-21T02:18:31;12.63;;;6.17;;
24617;SDS011;12762;51.730;5.356;2024-02-21T02:20:58;17.93;;;7.20;;
24617;SDS011;12762;51.730;5.356;2024-02-21T02:23:28;20.87;;;6.43;;
24617;SDS011;12762;51.730;5.356;2024-02-21T02:25:56;20.13;;;7.17;;
24617;SDS011;12762;51.730;5.356;2024-02-21T02:28:23;16.97;;;6.30;;
24617;SDS011;12762;51.730;5.356;2024-02-21T02:30:50;14.50;;;5.77;;
24617;SDS011;12762;51.730;5.356;2024-02-21T02:33:17;12.83;;;5.73;;
24617;SDS011;12762;51.730;5.356;2024-02-21T02:35:44;18.00;;;5.60;;
24617;SDS011;12762;51.730;5.356;2024-02-21T02:38:17;16.10;;;6.03;;
24617;SDS011;12762;51.730;5.356;2024-02-21T02:40:44;13.67;;;5.60;;
24617;SDS011;12762;51.730;5.356;2024-02-21T02:43:11;12.00;;;5.23;;
24617;SDS011;12762;51.730;5.356;2024-02-21T02:45:37;16.90;;;5.13;;
24617;SDS011;12762;51.730;5.356;2024-02-21T02:48:04;17.07;;;5.50;;
24617;SDS011;12762;51.730;5.356;2024-02-21T02:50:31;15.70;;;5.43;;
24617;SDS011;12762;51.730;5.356;2024-02-21T02:52:58;9.60;;;4.30;;
24617;SDS011;12762;51.730;5.356;2024-02-21T02:55:25;12.43;;;4.93;;
24617;SDS011;12762;51.730;5.356;2024-02-21T02:57:53;10.63;;;5.30;;
24617;SDS011;12762;51.730;5.356;2024-02-21T03:00:20;14.67;;;5.30;;
24617;SDS011;12762;51.730;5.356;2024-02-21T03:02:48;16.70;;;5.27;;
24617;SDS011;12762;51.730;5.356;2024-02-21T03:05:16;13.43;;;4.47;;
24617;SDS011;12762;51.730;5.356;2024-02-21T03:07:48;15.50;;;5.63;;
24617;SDS011;12762;51.730;5.356;2024-02-21T03:10:18;13.03;;;4.70;;
24617;SDS011;12762;51.730;5.356;2024-02-21T03:12:45;12.23;;;5.40;;
24617;SDS011;12762;51.730;5.356;2024-02-21T03:15:12;14.60;;;5.10;;
24617;SDS011;12762;51.730;5.356;2024-02-21T03:17:40;14.20;;;5.00;;
24617;SDS011;12762;51.730;5.356;2024-02-21T03:20:08;13.30;;;5.00;;
24617;SDS011;12762;51.730;5.356;2024-02-21T03:22:38;9.90;;;4.77;;
24617;SDS011;12762;51.730;5.356;2024-02-21T03:25:05;14.40;;;4.87;;
24617;SDS011;12762;51.730;5.356;2024-02-21T03:27:33;10.53;;;4.10;;
24617;SDS011;12762;51.730;5.356;2024-02-21T03:30:00;15.00;;;5.30;;
24617;SDS011;12762;51.730;5.356;2024-02-21T03:32:27;10.57;;;4.17;;
24617;SDS011;12762;51.730;5.356;2024-02-21T03:34:55;15.60;;;4.70;;
24617;SDS011;12762;51.730;5.356;2024-02-21T03:37:22;12.13;;;4.70;;
24617;SDS011;12762;51.730;5.356;2024-02-21T03:39:49;12.80;;;4.27;;
24617;SDS011;12762;51.730;5.356;2024-02-21T03:42:16;13.23;;;4.53;;
24617;SDS011;12762;51.730;5.356;2024-02-21T03:44:42;8.80;;;4.00;;
24617;SDS011;12762;51.730;5.356;2024-02-21T03:47:12;11.40;;;4.27;;
24617;SDS011;12762;51.730;5.356;2024-02-21T03:49:39;12.37;;;4.47;;
24617;SDS011;12762;51.730;5.356;2024-02-21T03:52:06;16.70;;;4.57;;
24617;SDS011;12762;51.730;5.356;2024-02-21T03:54:35;10.87;;;4.43;;
24617;SDS011;12762;51.730;5.356;2024-02-21T03:57:04;14.70;;;5.27;;
24617;SDS011;12762;51.730;5.356;2024-02-21T03:59:31;13.87;;;4.67;;
24617;SDS011;12762;51.730;5.356;2024-02-21T04:01:58;12.43;;;4.50;;
24617;SDS011;12762;51.730;5.356;2024-02-21T04:04:25;11.90;;;5.53;;
24617;SDS011;12762;51.730;5.356;2024-02-21T04:06:52;14.60;;;5.57;;
24617;SDS011;12762;51.730;5.356;2024-02-21T04:09:19;13.77;;;5.03;;
24617;SDS011;12762;51.730;5.356;2024-02-21T04:11:45;13.93;;;5.33;;
24617;SDS011;12762;51.730;5.356;2024-02-21T04:14:12;13.43;;;5.43;;
24617;SDS011;12762;51.730;5.356;2024-02-21T04:16:39;11.83;;;5.43;;
24617;SDS011;12762;51.730;5.356;2024-02-21T04:19:06;14.30;;;5.97;;
24617;SDS011;12762;51.730;5.356;2024-02-21T04:21:34;13.10;;;5.83;;
24617;SDS011;12762;51.730;5.356;2024-02-21T04:24:01;15.70;;;5.90;;
24617;SDS011;12762;51.730;5.356;2024-02-21T04:26:29;14.27;;;5.97;;
24617;SDS011;12762;51.730;5.356;2024-02-21T04:28:56;14.60;;;6.27;;
24617;SDS011;12762;51.730;5.356;2024-02-21T04:31:23;16.43;;;7.17;;
24617;SDS011;12762;51.730;5.356;2024-02-21T04:33:50;13.73;;;6.10;;
24617;SDS011;12762;51.730;5.356;2024-02-21T04:36:17;15.77;;;6.17;;
24617;SDS011;12762;51.730;5.356;2024-02-21T04:38:44;18.40;;;7.07;;
24617;SDS011;12762;51.730;5.356;2024-02-21T04:41:11;16.33;;;6.93;;
24617;SDS011;12762;51.730;5.356;2024-02-21T04:43:38;16.70;;;6.57;;
24617;SDS011;12762;51.730;5.356;2024-02-21T04:46:05;15.03;;;6.40;;
24617;SDS011;12762;51.730;5.356;2024-02-21T04:48:32;16.57;;;6.23;;
24617;SDS011;12762;51.730;5.356;2024-02-21T04:50:59;18.93;;;7.23;;
24617;SDS011;12762;51.730;5.356;2024-02-21T04:53:25;17.50;;;7.03;;
24617;SDS011;12762;51.730;5.356;2024-02-21T04:55:52;15.93;;;7.93;;
24617;SDS011;12762;51.730;5.356;2024-02-21T04:58:22;19.47;;;6.77;;
24617;SDS011;12762;51.730;5.356;2024-02-21T05:00:49;18.67;;;7.63;;
24617;SDS011;12762;51.730;5.356;2024-02-21T05:03:16;15.47;;;7.37;;
24617;SDS011;12762;51.730;5.356;2024-02-21T05:05:49;17.87;;;7.43;;
24617;SDS011;12762;51.730;5.356;2024-02-21T05:08:19;17.43;;;7.23;;
24617;SDS011;12762;51.730;5.356;2024-02-21T05:10:46;16.33;;;7.10;;
24617;SDS011;12762;51.730;5.356;2024-02-21T05:13:14;21.47;;;6.87;;
24617;SDS011;12762;51.730;5.356;2024-02-21T05:15:44;19.63;;;7.90;;
24617;SDS011;12762;51.730;5.356;2024-02-21T05:18:11;25.27;;;7.60;;
24617;SDS011;12762;51.730;5.356;2024-02-21T05:20:38;17.10;;;7.37;;
24617;SDS011;12762;51.730;5.356;2024-02-21T05:23:07;18.43;;;7.33;;
24617;SDS011;12762;51.730;5.356;2024-02-21T05:25:34;14.93;;;7.23;;
24617;SDS011;12762;51.730;5.356;2024-02-21T05:28:01;17.67;;;7.47;;
24617;SDS011;12762;51.730;5.356;2024-02-21T05:30:29;18.60;;;6.97;;
24617;SDS011;12762;51.730;5.356;2024-02-21T05:32:56;17.70;;;6.67;;
24617;SDS011;12762;51.730;5.356;2024-02-21T05:35:26;15.53;;;6.67;;
24617;SDS011;12762;51.730;5.356;2024-02-21T05:37:54;19.87;;;7.07;;
24617;SDS011;12762;51.730;5.356;2024-02-21T05:40:21;14.70;;;7.00;;
24617;SDS011;12762;51.730;5.356;2024-02-21T05:42:48;13.13;;;6.67;;
24617;SDS011;12762;51.730;5.356;2024-02-21T05:45:14;16.63;;;7.07;;
24617;SDS011;12762;51.730;5.356;2024-02-21T05:47:41;18.13;;;7.53;;
24617;SDS011;12762;51.730;5.356;2024-02-21T05:50:09;19.07;;;6.83;;
24617;SDS011;12762;51.730;5.356;2024-02-21T05:52:36;14.57;;;5.83;;
24617;SDS011;12762;51.730;5.356;2024-02-21T05:55:03;13.20;;;6.40;;
24617;SDS011;12762;51.730;5.356;2024-02-21T05:57:30;15.23;;;5.93;;
24617;SDS011;12762;51.730;5.356;2024-02-21T05:59:56;11.47;;;5.77;;
24617;SDS011;12762;51.730;5.356;2024-02-21T06:02:23;15.43;;;5.80;;
24617;SDS011;12762;51.730;5.356;2024-02-21T06:04:53;17.80;;;6.40;;
24617;SDS011;12762;51.730;5.356;2024-02-21T06:07:20;12.03;;;5.83;;
24617;SDS011;12762;51.730;5.356;2024-02-21T06:09:47;17.30;;;5.80;;
24617;SDS011;12762;51.730;5.356;2024-02-21T06:12:14;16.77;;;5.90;;
24617;SDS011;12762;51.730;5.356;2024-02-21T06:14:40;14.40;;;6.03;;
24617;SDS011;12762;51.730;5.356;2024-02-21T06:17:07;15.33;;;6.10;;
24617;SDS011;12762;51.730;5.356;2024-02-21T06:19:34;16.23;;;5.63;;
24617;SDS011;12762;51.730;5.356;2024-02-21T06:22:01;17.33;;;7.03;;
24617;SDS011;12762;51.730;5.356;2024-02-21T06:24:28;15.83;;;6.13;;
24617;SDS011;12762;51.730;5.356;2024-02-21T06:26:55;18.37;;;6.27;;
24617;SDS011;12762;51.730;5.356;2024-02-21T06:29:22;17.47;;;5.63;;
24617;SDS011;12762;51.730;5.356;2024-02-21T06:31:49;12.63;;;5.40;;
24617;SDS011;12762;51.730;5.356;2024-02-21T06:34:15;12.63;;;5.30;;
24617;SDS011;12762;51.730;5.356;2024-02-21T06:36:44;14.30;;;6.20;;
24617;SDS011;12762;51.730;5.356;2024-02-21T06:39:11;10.83;;;4.87;;
24617;SDS011;12762;51.730;5.356;2024-02-21T06:41:38;18.03;;;6.30;;
24617;SDS011;12762;51.730;5.356;2024-02-21T06:44:04;21.70;;;6.23;;
24617;SDS011;12762;51.730;5.356;2024-02-21T06:46:43;20.73;;;6.20;;
24617;SDS011;12762;51.730;5.356;2024-02-21T06:49:09;14.03;;;6.03;;
24617;SDS011;12762;51.730;5.356;2024-02-21T06:51:42;12.87;;;5.77;;
24617;SDS011;12762;51.730;5.356;2024-02-21T06:54:09;15.37;;;6.13;;
24617;SDS011;12762;51.730;5.356;2024-02-21T06:56:39;16.70;;;6.20;;
24617;SDS011;12762;51.730;5.356;2024-02-21T06:59:06;17.07;;;6.53;;
24617;SDS011;12762;51.730;5.356;2024-02-21T07:01:33;18.40;;;7.90;;
24617;SDS011;12762;51.730;5.356;2024-02-21T07:04:00;17.80;;;6.27;;
24617;SDS011;12762;51.730;5.356;2024-02-21T07:06:27;13.27;;;6.00;;
24617;SDS011;12762;51.730;5.356;2024-02-21T07:08:56;18.90;;;5.90;;
24617;SDS011;12762;51.730;5.356;2024-02-21T07:11:23;17.70;;;6.43;;
24617;SDS011;12762;51.730;5.356;2024-02-21T07:13:50;14.90;;;5.90;;
24617;SDS011;12762;51.730;5.356;2024-02-21T07:16:18;15.67;;;6.07;;
24617;SDS011;12762;51.730;5.356;2024-02-21T07:18:45;14.63;;;6.63;;
24617;SDS011;12762;51.730;5.356;2024-02-21T07:21:12;15.13;;;6.63;;
24617;SDS011;12762;51.730;5.356;2024-02-21T07:23:41;15.53;;;6.67;;
24617;SDS011;12762;51.730;5.356;2024-02-21T07:26:11;14.70;;;5.83;;
24617;SDS011;12762;51.730;5.356;2024-02-21T07:28:37;12.13;;;6.23;;
24617;SDS011;12762;51.730;5.356;2024-02-21T07:31:04;16.80;;;6.67;;
24617;SDS011;12762;51.730;5.356;2024-02-21T07:33:31;17.90;;;6.73;;
24617;SDS011;12762;51.730;5.356;2024-02-21T07:36:05;13.27;;;6.70;;
24617;SDS011;12762;51.730;5.356;2024-02-21T07:38:33;19.13;;;6.67;;
24617;SDS011;12762;51.730;5.356;2024-02-21T07:41:00;14.77;;;6.43;;
24617;SDS011;12762;51.730;5.356;2024-02-21T07:43:27;15.03;;;7.07;;
24617;SDS011;12762;51.730;5.356;2024-02-21T07:45:54;14.77;;;6.20;;
24617;SDS011;12762;51.730;5.356;2024-02-21T07:48:21;14.07;;;6.40;;
24617;SDS011;12762;51.730;5.356;2024-02-21T07:50:51;16.70;;;6.90;;
24617;SDS011;12762;51.730;5.356;2024-02-21T07:53:17;13.77;;;6.40;;
24617;SDS011;12762;51.730;5.356;2024-02-21T07:55:45;13.40;;;6.40;;
24617;SDS011;12762;51.730;5.356;2024-02-21T07:58:12;12.47;;;6.37;;
24617;SDS011;12762;51.730;5.356;2024-02-21T08:00:39;23.17;;;6.87;;
24617;SDS011;12762;51.730;5.356;2024-02-21T08:03:06;15.47;;;7.00;;
24617;SDS011;12762;51.730;5.356;2024-02-21T08:05:36;12.17;;;6.03;;
24617;SDS011;12762;51.730;5.356;2024-02-21T08:08:03;17.07;;;6.10;;
24617;SDS011;12762;51.730;5.356;2024-02-21T08:10:30;16.67;;;6.40;;
24617;SDS011;12762;51.730;5.356;2024-02-21T08:12:57;15.57;;;5.90;;
24617;SDS011;12762;51.730;5.356;2024-02-21T08:15:24;15.63;;;6.93;;
24617;SDS011;12762;51.730;5.356;2024-02-21T08:17:55;16.13;;;6.73;;
24617;SDS011;12762;51.730;5.356;2024-02-21T08:20:28;16.47;;;6.07;;
24617;SDS011;12762;51.730;5.356;2024-02-21T08:22:54;15.87;;;6.77;;
24617;SDS011;12762;51.730;5.356;2024-02-21T08:25:21;14.73;;;6.13;;
24617;SDS011;12762;51.730;5.356;2024-02-21T08:27:48;17.33;;;6.77;;
24617;SDS011;12762;51.730;5.356;2024-02-21T08:30:18;18.00;;;6.97;;
24617;SDS011;12762;51.730;5.356;2024-02-21T08:32:46;14.77;;;6.10;;
24617;SDS011;12762;51.730;5.356;2024-02-21T08:35:13;14.33;;;6.27;;
24617;SDS011;12762;51.730;5.356;2024-02-21T08:37:39;15.60;;;6.20;;
24617;SDS011;12762;51.730;5.356;2024-02-21T08:40:06;16.30;;;6.90;;
24617;SDS011;12762;51.730;5.356;2024-02-21T08:42:35;16.90;;;6.43;;
24617;SDS011;12762;51.730;5.356;2024-02-21T08:45:03;12.70;;;5.90;;
24617;SDS011;12762;51.730;5.356;2024-02-21T08:47:30;16.43;;;6.43;;
24617;SDS011;12762;51.730;5.356;2024-02-21T08:49:57;13.57;;;6.27;;
24617;SDS011;12762;51.730;5.356;2024-02-21T08:52:25;10.87;;;5.90;;
24617;SDS011;12762;51.730;5.356;2024-02-21T08:54:52;13.27;;;6.00;;
24617;SDS011;12762;51.730;5.356;2024-02-21T08:57:20;15.07;;;5.73;;
24617;SDS011;12762;51.730;5.356;2024-02-21T08:59:46;15.20;;;5.90;;
24617;SDS011;12762;51.730;5.356;2024-02-21T09:02:13;11.87;;;5.17;;
24617;SDS011;12762;51.730;5.356;2024-02-21T09:04:42;11.83;;;5.93;;
24617;SDS011;12762;51.730;5.356;2024-02-21T09:07:17;10.73;;;5.40;;
24617;SDS011;12762;51.730;5.356;2024-02-21T09:09:45;14.53;;;5.70;;
24617;SDS011;12762;51.730;5.356;2024-02-21T09:12:11;12.73;;;4.87;;
24617;SDS011;12762;51.730;5.356;2024-02-21T09:14:41;12.07;;;5.07;;
24617;SDS011;12762;51.730;5.356;2024-02-21T09:17:08;11.93;;;5.03;;
24617;SDS011;12762;51.730;5.356;2024-02-21T09:19:35;8.20;;;4.07;;
24617;SDS011;12762;51.730;5.356;2024-02-21T09:22:02;9.57;;;4.60;;
24617;SDS011;12762;51.730;5.356;2024-02-21T09:24:29;8.90;;;4.50;;
24617;SDS011;12762;51.730;5.356;2024-02-21T09:26:56;7.93;;;4.27;;
24617;SDS011;12762;51.730;5.356;2024-02-21T09:29:23;11.33;;;4.80;;
24617;SDS011;12762;51.730;5.356;2024-02-21T09:31:53;12.17;;;4.50;;
24617;SDS011;12762;51.730;5.356;2024-02-21T09:34:20;9.67;;;4.80;;
24617;SDS011;12762;51.730;5.356;2024-02-21T09:36:48;8.43;;;4.30;;
24617;SDS011;12762;51.730;5.356;2024-02-21T09:39:15;9.17;;;4.53;;
24617;SDS011;12762;51.730;5.356;2024-02-21T09:41:45;10.53;;;4.50;;
24617;SDS011;12762;51.730;5.356;2024-02-21T09:44:21;10.50;;;4.77;;
24617;SDS011;12762;51.730;5.356;2024-02-21T09:47:01;8.37;;;4.53;;
24617;SDS011;12762;51.730;5.356;2024-02-21T09:49:32;7.93;;;4.30;;
24617;SDS011;12762;51.730;5.356;2024-02-21T09:52:01;7.27;;;3.67;;
24617;SDS011;12762;51.730;5.356;2024-02-21T09:54:30;8.57;;;3.97;;
24617;SDS011;12762;51.730;5.356;2024-02-21T09:57:00;7.93;;;4.10;;
24617;SDS011;12762;51.730;5.356;2024-02-21T09:59:28;8.40;;;4.10;;
24617;SDS011;12762;51.730;5.356;2024-02-21T10:01:56;8.43;;;4.00;;
24617;SDS011;12762;51.730;5.356;2024-02-21T10:04:23;10.30;;;4.00;;
24617;SDS011;12762;51.730;5.356;2024-02-21T10:06:54;8.23;;;4.37;;
24617;SDS011;12762;51.730;5.356;2024-02-21T10:09:22;7.03;;;3.90;;
24617;SDS011;12762;51.730;5.356;2024-02-21T10:11:50;8.33;;;4.23;;
24617;SDS011;12762;51.730;5.356;2024-02-21T10:14:17;8.00;;;5.07;;
24617;SDS011;12762;51.730;5.356;2024-02-21T10:16:46;8.57;;;4.60;;
24617;SDS011;12762;51.730;5.356;2024-02-21T10:19:20;11.73;;;4.73;;
24617;SDS011;12762;51.730;5.356;2024-02-21T10:24:31;8.23;;;5.27;;
24617;SDS011;12762;51.730;5.356;2024-02-21T10:27:05;11.20;;;5.30;;
24617;SDS011;12762;51.730;5.356;2024-02-21T10:29:35;13.50;;;6.27;;
24617;SDS011;12762;51.730;5.356;2024-02-21T10:34:32;13.40;;;6.70;;
24617;SDS011;12762;51.730;5.356;2024-02-21T10:37:03;14.07;;;6.73;;
24617;SDS011;12762;51.730;5.356;2024-02-21T10:39:33;9.70;;;5.70;;
24617;SDS011;12762;51.730;5.356;2024-02-21T10:42:01;14.13;;;6.73;;
24617;SDS011;12762;51.730;5.356;2024-02-21T10:44:32;11.50;;;6.07;;
24617;SDS011;12762;51.730;5.356;2024-02-21T10:47:11;14.40;;;6.47;;
24617;SDS011;12762;51.730;5.356;2024-02-21T10:49:44;11.03;;;5.77;;
24617;SDS011;12762;51.730;5.356;2024-02-21T10:52:17;10.40;;;5.57;;
24617;SDS011;12762;51.730;5.356;2024-02-21T10:55:19;11.27;;;5.87;;
24617;SDS011;12762;51.730;5.356;2024-02-21T10:57:50;11.53;;;5.97;;
24617;SDS011;12762;51.730;5.356;2024-02-21T11:00:18;13.93;;;6.17;;
24617;SDS011;12762;51.730;5.356;2024-02-21T11:02:46;9.57;;;5.30;;
24617;SDS011;12762;51.730;5.356;2024-02-21T11:05:18;10.13;;;5.13;;
24617;SDS011;12762;51.730;5.356;2024-02-21T11:07:45;9.97;;;5.20;;
24617;SDS011;12762;51.730;5.356;2024-02-21T11:10:25;12.23;;;5.20;;
24617;SDS011;12762;51.730;5.356;2024-02-21T11:12:53;10.93;;;5.20;;
24617;SDS011;12762;51.730;5.356;2024-02-21T11:15:32;11.20;;;4.53;;
24617;SDS011;12762;51.730;5.356;2024-02-21T11:17:59;11.57;;;4.67;;
24617;SDS011;12762;51.730;5.356;2024-02-21T11:20:33;8.60;;;4.63;;
24617;SDS011;12762;51.730;5.356;2024-02-21T11:23:05;9.50;;;4.03;;
24617;SDS011;12762;51.730;5.356;2024-02-21T11:25:32;10.10;;;4.67;;
24617;SDS011;12762;51.730;5.356;2024-02-21T11:28:01;10.40;;;5.23;;
24617;SDS011;12762;51.730;5.356;2024-02-21T11:30:32;10.57;;;4.23;;
24617;SDS011;12762;51.730;5.356;2024-02-21T11:33:02;11.67;;;5.23;;
24617;SDS011;12762;51.730;5.356;2024-02-21T11:35:33;12.93;;;4.20;;
24617;SDS011;12762;51.730;5.356;2024-02-21T11:38:08;9.00;;;4.50;;
24617;SDS011;12762;51.730;5.356;2024-02-21T11:40:46;13.43;;;4.40;;
24617;SDS011;12762;51.730;5.356;2024-02-21T11:43:14;8.23;;;4.07;;
24617;SDS011;12762;51.730;5.356;2024-02-21T11:45:42;10.53;;;4.50;;
24617;SDS011;12762;51.730;5.356;2024-02-21T11:48:11;8.33;;;3.93;;
24617;SDS011;12762;51.730;5.356;2024-02-21T11:50:38;10.17;;;3.90;;
24617;SDS011;12762;51.730;5.356;2024-02-21T11:53:06;9.83;;;4.43;;
24617;SDS011;12762;51.730;5.356;2024-02-21T11:55:33;7.73;;;4.10;;
24617;SDS011;12762;51.730;5.356;2024-02-21T11:58:00;10.30;;;4.53;;
24617;SDS011;12762;51.730;5.356;2024-02-21T12:00:27;10.27;;;4.23;;
24617;SDS011;12762;51.730;5.356;2024-02-21T12:02:54;11.43;;;4.13;;
24617;SDS011;12762;51.730;5.356;2024-02-21T12:05:26;9.73;;;4.33;;
24617;SDS011;12762;51.730;5.356;2024-02-21T12:07:55;8.07;;;3.73;;
24617;SDS011;12762;51.730;5.356;2024-02-21T12:10:25;6.53;;;4.10;;
24617;SDS011;12762;51.730;5.356;2024-02-21T12:12:53;9.40;;;4.37;;
24617;SDS011;12762;51.730;5.356;2024-02-21T12:15:31;10.23;;;3.53;;
24617;SDS011;12762;51.730;5.356;2024-02-21T12:17:57;11.03;;;4.20;;
24617;SDS011;12762;51.730;5.356;2024-02-21T12:20:26;8.33;;;4.07;;
24617;SDS011;12762;51.730;5.356;2024-02-21T12:22:53;7.83;;;3.40;;
24617;SDS011;12762;51.730;5.356;2024-02-21T12:25:21;8.00;;;3.57;;
24617;SDS011;12762;51.730;5.356;2024-02-21T12:27:58;7.47;;;3.40;;
24617;SDS011;12762;51.730;5.356;2024-02-21T12:30:26;9.50;;;3.97;;
24617;SDS011;12762;51.730;5.356;2024-02-21T12:32:53;11.17;;;3.47;;
24617;SDS011;12762;51.730;5.356;2024-02-21T12:35:20;9.63;;;3.43;;
24617;SDS011;12762;51.730;5.356;2024-02-21T12:37:47;7.70;;;3.60;;
24617;SDS011;12762;51.730;5.356;2024-02-21T12:40:14;12.60;;;3.57;;
24617;SDS011;12762;51.730;5.356;2024-02-21T12:42:42;11.13;;;3.33;;
24617;SDS011;12762;51.730;5.356;2024-02-21T12:45:09;7.37;;;3.30;;
24617;SDS011;12762;51.730;5.356;2024-02-21T12:47:36;7.00;;;3.40;;
24617;SDS011;12762;51.730;5.356;2024-02-21T12:50:03;11.97;;;3.90;;
24617;SDS011;12762;51.730;5.356;2024-02-21T12:52:33;8.17;;;3.30;;
24617;SDS011;12762;51.730;5.356;2024-02-21T12:55:00;10.33;;;2.97;;
24617;SDS011;12762;51.730;5.356;2024-02-21T12:57:27;9.97;;;3.50;;
24617;SDS011;12762;51.730;5.356;2024-02-21T12:59:54;7.07;;;3.73;;
24617;SDS011;12762;51.730;5.356;2024-02-21T13:02:21;8.97;;;2.90;;
24617;SDS011;12762;51.730;5.356;2024-02-21T13:04:48;6.47;;;3.10;;
24617;SDS011;12762;51.730;5.356;2024-02-21T13:07:15;9.73;;;3.90;;
24617;SDS011;12762;51.730;5.356;2024-02-21T13:09:45;7.43;;;3.00;;
24617;SDS011;12762;51.730;5.356;2024-02-21T13:12:13;8.50;;;3.53;;
24617;SDS011;12762;51.730;5.356;2024-02-21T13:14:39;6.57;;;3.10;;
24617;SDS011;12762;51.730;5.356;2024-02-21T13:17:09;8.83;;;3.30;;
24617;SDS011;12762;51.730;5.356;2024-02-21T13:19:37;9.97;;;3.30;;
24617;SDS011;12762;51.730;5.356;2024-02-21T13:22:04;7.40;;;3.07;;
24617;SDS011;12762;51.730;5.356;2024-02-21T13:24:32;8.50;;;2.90;;
24617;SDS011;12762;51.730;5.356;2024-02-21T13:26:58;10.13;;;3.10;;
24617;SDS011;12762;51.730;5.356;2024-02-21T13:29:25;9.93;;;3.20;;
24617;SDS011;12762;51.730;5.356;2024-02-21T13:31:52;6.97;;;2.80;;
24617;SDS011;12762;51.730;5.356;2024-02-21T13:34:19;10.40;;;3.27;;
24617;SDS011;12762;51.730;5.356;2024-02-21T13:36:46;7.97;;;2.60;;
24617;SDS011;12762;51.730;5.356;2024-02-21T13:39:13;7.50;;;2.30;;
24617;SDS011;12762;51.730;5.356;2024-02-21T13:41:42;6.13;;;2.80;;
24617;SDS011;12762;51.730;5.356;2024-02-21T13:44:09;6.10;;;2.60;;
24617;SDS011;12762;51.730;5.356;2024-02-21T13:46:36;6.77;;;2.40;;
24617;SDS011;12762;51.730;5.356;2024-02-21T13:49:04;8.53;;;3.00;;
24617;SDS011;12762;51.730;5.356;2024-02-21T13:51:33;5.70;;;2.13;;
24617;SDS011;12762;51.730;5.356;2024-02-21T13:54:02;4.67;;;2.07;;
24617;SDS011;12762;51.730;5.356;2024-02-21T13:56:30;6.73;;;2.63;;
24617;SDS011;12762;51.730;5.356;2024-02-21T13:58:58;4.57;;;2.50;;
24617;SDS011;12762;51.730;5.356;2024-02-21T14:01:26;4.97;;;2.23;;
24617;SDS011;12762;51.730;5.356;2024-02-21T14:03:59;8.37;;;2.53;;
24617;SDS011;12762;51.730;5.356;2024-02-21T14:06:26;4.67;;;2.20;;
24617;SDS011;12762;51.730;5.356;2024-02-21T14:08:53;5.83;;;2.13;;
24617;SDS011;12762;51.730;5.356;2024-02-21T14:11:21;5.27;;;2.40;;
24617;SDS011;12762;51.730;5.356;2024-02-21T14:13:49;5.90;;;2.17;;
24617;SDS011;12762;51.730;5.356;2024-02-21T14:16:16;5.27;;;2.20;;
24617;SDS011;12762;51.730;5.356;2024-02-21T14:18:45;4.80;;;2.10;;
24617;SDS011;12762;51.730;5.356;2024-02-21T14:21:16;5.60;;;2.00;;
24617;SDS011;12762;51.730;5.356;2024-02-21T14:23:43;7.50;;;2.20;;
24617;SDS011;12762;51.730;5.356;2024-02-21T14:26:10;7.40;;;2.37;;
24617;SDS011;12762;51.730;5.356;2024-02-21T14:28:38;5.60;;;2.30;;
24617;SDS011;12762;51.730;5.356;2024-02-21T14:31:05;4.73;;;2.13;;
24617;SDS011;12762;51.730;5.356;2024-02-21T14:33:38;6.53;;;2.10;;
24617;SDS011;12762;51.730;5.356;2024-02-21T14:36:05;5.70;;;2.30;;
24617;SDS011;12762;51.730;5.356;2024-02-21T14:38:33;8.97;;;2.50;;
24617;SDS011;12762;51.730;5.356;2024-02-21T14:41:01;7.07;;;2.70;;
24617;SDS011;12762;51.730;5.356;2024-02-21T14:43:28;4.67;;;2.40;;
24617;SDS011;12762;51.730;5.356;2024-02-21T14:45:55;4.73;;;2.50;;
24617;SDS011;12762;51.730;5.356;2024-02-21T14:48:22;7.63;;;2.80;;